International Virtual Aviation Organisation

Russian Federation and Kazakhstan MCD

 
UHBB 270330Z 35005MPS CAVOK M08/M17 Q1025 R36/090060 NOSIG RMK QFE751/1002
QNH:(hPa/inHg/mmHg)1025 / 30.27 / 769
QFE:(hPa/inHg/mmHg)1001 / 29.57 / 751
Temperature-8
Dew Point-17
Visibility> 10000
WeatherCAVOK
Cloud Cover
Transition Height900 m./3600 ft.
Transition LevelFL50
SQUAWK